Bruno Nogueira

Scout - Bahia
9 Dez 2028
Samstag
Verarbeitung

Persönlichkeit

Anpassungsfähigkeit (2) Ehrgeiz (4) Kontroverse (6) Loyalität (5) Druck (2) Professionalität (7) Fairness (18) Temperament (6)

Profil

Trainerstil Demokratisch
Lizenz Kontinentale Pro
Entschlossenheit 11
Menschenführung 6
Motivation 13
Disziplin 7
Arbeitszufriedenheit
100%
Ermüdung
0%
Rolle Scout
Gehalt 86.1K p/W
Vertrag 14.03.2029

Leistung

Verhalten Gut
Trainingseffektivität
51%
Spielerentwicklung
70%
Verletzungsprävention
45%
Taktische Umsetzung
70%

Letzte Ereignisse

Nahm an einer Scouting-Besprechung teil jetzt
Empfahl ein Transferziel jetzt
Empfahl ein Transferziel 7T her
Empfahl ein Transferziel 7T her
Empfahl ein Transferziel 7T her
Empfahl ein Transferziel 7T her
Spieler begutachtet 7T her
Legte dem Vorstand ein Dossier vor 7T her

Aktuell beobachtet

111
Spieler Verein Status Fähigkeit Vertrauen Beobachtet Zuletzt beobachtet Letzte Stimme
Kauã Criciuma Aktiv 117 / 118 40% 2 29.11.2028 -
James Trafford Leeds United Aktiv 154 / 163 40% 2 29.11.2028 -
Isaac Boehmer Vancouver Whitecaps Aktiv 126 / 110 40% 2 29.11.2028 -
Gideon Manaseh Ikorodu City Aktiv 89 / 99 40% 3 27.11.2028 -
Noah Markmann Esbjerg Verloren 126 / 118 40% 2 27.11.2028 -
Denilson Santos Sporting CP Aktiv 104 / 110 40% 1 27.11.2028 -
Luciano Jachfe Nueva Chicago Aktiv 124 / 128 40% 5 22.11.2028 -
Facundo Sanguinetti Banfield Aktiv 127 / 130 40% 2 22.11.2028 -
Lucas Cuevas Rosario Central Aktiv 126 / 126 40% 2 22.11.2028 -
Christos Mouzakitis Hull City Aktiv 140 / 156 40% 6 20.11.2028 -
Seydou Fofana Pacos de Ferreira Aktiv 104 / 110 40% 2 20.11.2028 -
José Neto Benfica Aktiv 117 / 127 40% 2 20.11.2028 -
Lautaro Herrera Estudiantes Aktiv 103 / 114 40% 3 20.11.2028 -
Diego Callai Sporting CP Aktiv 125 / 136 40% 2 20.11.2028 -
Juan Pablo Insúa Barracas Central Aktiv 111 / 112 40% 2 20.11.2028 -
Bruno Antúnez Boston River Aktiv 113 / 114 40% 2 18.11.2028 -
Matheus Cunha Cruzeiro Aktiv 131 / 130 40% 1 18.11.2028 -
Veljko Milosavljević Bournemouth Aktiv 150 / 160 40% 2 17.11.2028 -
Tyler Fletcher Rotherham United Aktiv 110 / 116 40% 1 17.11.2028 -
Mateo Caballero Defensor Sporting Aktiv 107 / 104 40% 1 17.11.2028 -
João Capucho Benfica Aktiv 119 / 109 40% 1 16.11.2028 -
Snyder Brunell Seattle Sounders Aktiv 104 / 95 40% 1 16.11.2028 -
Riquelme Thompson-Jones Accrington Stanley Aktiv 121 / 119 40% 1 16.11.2028 -
Kostantis Tzolakis Brighton Aktiv 166 / 161 40% 1 15.11.2028 -
Antonio Carrera Falkenberg Aktiv 117 / 112 40% 1 15.11.2028 -
Francisco Salerno Defensores Unidos Aktiv 110 / 109 40% 3 13.11.2028 -
Facundo Vila Estudiantes Aktiv 109 / 115 40% 3 13.11.2028 -
Biola Sabitu Remo Stars Aktiv 102 / 119 40% 2 13.11.2028 -
Joaquín Blázquez Talleres Aktiv 127 / 131 40% 3 12.11.2028 -
Alejandro Rodríguez Melgar Aktiv 124 / 132 40% 3 12.11.2028 -
Alejo Medina Agropecuario Argentino Aktiv 107 / 110 40% 1 12.11.2028 -
Trey Nyoni Rotherham United Aktiv 148 / 152 40% 5 11.11.2028 -
Honest Ahanor Atalanta Aktiv 135 / 156 40% 3 11.11.2028 -
Noa Mikić Imotski Aktiv 119 / 117 40% 1 11.11.2028 -
Jasper Torkildsen IK Start Aktiv 110 / 113 40% 1 10.11.2028 -
Josh Keeley Luton Town Aktiv 139 / 140 40% 1 10.11.2028 -
Frankarlos Benítez Caracas Aktiv 116 / 120 40% 3 09.11.2028 -
Fabrizio Correa Juventud Aktiv 130 / 131 40% 1 09.11.2028 -
Lautaro Maldonado Instituto Aktiv 115 / 123 40% 2 04.11.2028 -
Carl Rushworth Aston Villa Aktiv 160 / 159 40% 2 04.11.2028 -
Ángel Maciel Tacuarembo Aktiv 113 / 116 40% 1 31.10.2028 -
John Amah Plateau United Aktiv 106 / 115 40% 2 30.10.2028 -
Federico Losas Chacarita Juniors Aktiv 125 / 123 40% 3 27.10.2028 -
Kevin Chacón Alianza Petrolera Aktiv 112 / 113 40% 1 27.10.2028 -
Leandro Brey Boca Juniors Aktiv 146 / 135 40% 4 26.10.2028 -
Daniel Banjaqui Benfica Aktiv 132 / 139 40% 9 25.10.2028 -
Máximo Munarriz San Telmo Aktiv 100 / 106 40% 2 25.10.2028 -
Rafael Mota Sporting CP Aktiv 111 / 125 40% 1 23.10.2028 -
Ignacio Suárez Cerro Aktiv 113 / 119 40% 2 22.10.2028 -
Martim Cunha Porto Aktiv 106 / 116 40% 4 21.10.2028 -
Joel Ezra Enyimba Aktiv 96 / 111 40% 2 21.10.2028 -
Vincent Edafe Warri Wolves Aktiv 109 / 111 40% 2 21.10.2028 -
José Arbío River Plate Aktiv 101 / 112 40% 1 21.10.2028 -
Ali Ishaku Abia Warriors Aktiv 100 / 108 40% 1 20.10.2028 -
Pablo Lúcio St. Gallen Aktiv 117 / 119 40% 3 17.10.2028 -
Vladimir Nazarov Pakhtakor Aktiv 129 / 115 40% 1 16.10.2028 -
Juan Pablo Rial San Telmo Aktiv 112 / 113 40% 2 11.10.2028 -
Abduvohid Ne'matov Nasaf Aktiv 137 / 131 40% 1 08.10.2028 -
Ani Ozoemena Rivers United Aktiv 108 / 105 40% 1 05.10.2028 -
Álvaro Busso Vélez Aktiv 110 / 114 40% 1 04.10.2028 -
Bernardo Lima Porto Aktiv 115 / 125 40% 4 03.10.2028 -
Luka Vušković Tottenham Aktiv 148 / 149 40% 2 03.10.2028 -
Celías Ingenthron Platense Aktiv 118 / 127 40% 1 03.10.2028 -
Giovanni Leoni Lincoln City Aktiv 154 / 151 40% 3 25.09.2028 -
Ayyoub Bouaddi Stoke City Aktiv 159 / 165 40% 2 22.09.2028 -
Matías Magdaleno Estudiantes Aktiv 115 / 114 40% 1 22.09.2028 -
Miguel Figueiredo Benfica Verloren 132 / 125 40% 4 18.09.2028 -
Louis Page Leicester City Aktiv 133 / 142 40% 1 18.09.2028 -
Lautaro Dufur Juventud Aktiv 107 / 111 40% 1 17.09.2028 -
Myles Lewis-Skelly Arsenal Aktiv 160 / 168 40% 1 17.09.2028 -
Ayden Heaven Portsmouth Aktiv 159 / 161 40% 2 15.09.2028 -
Rui Silva Benfica Aktiv 106 / 116 40% 1 10.09.2028 -
Salvador Blopá Wolverhampton Verhandlung 124 / 132 40% 1 10.09.2028 -
Kiani Inge Groningen Aktiv 108 / 125 40% 1 08.08.2028 -
Kamaldeen Atiemo Wa All Stars Aktiv 111 / 112 40% 1 08.08.2028 -
Kauã Moraes Flamengo Aktiv 132 / 137 40% 2 07.08.2028 -
Fábio Matheus São Paulo Aktiv 115 / 120 76% 1 17.07.2028 Befürworten
Ryan Corinthians Verhandlung 117 / 124 76% 1 02.06.2028 Befürworten
Matteo Ruggeri Middlesbrough Aktiv 162 / 162 40% 1 31.05.2028 -
Eric Ramires Bragantino Aktiv 131 / 126 76% 1 27.12.2027 Befürworten
Adam Wharton Crystal Palace Aktiv 157 / 166 40% 1 13.12.2027 -
Josh Acheampong Everton Aktiv 148 / 147 40% 4 29.11.2027 -
Colin Guske Orlando City Aktiv 85 / 107 40% 3 25.11.2027 -
Edvard Pettersen Sandefjord Aktiv 103 / 115 40% 2 20.11.2027 -
Nahuel Leivas Montevideo City Torque Aktiv 101 / 111 40% 1 18.11.2027 -
Olaniyi Saheed Kwara United Aktiv 86 / 96 40% 5 16.11.2027 -
Adrian Skogmar Malmo FF Aktiv 122 / 114 40% 4 16.11.2027 -
Esquerdinha Notts County Aktiv 128 / 135 40% 1 14.11.2027 -
Jon Esenga IF Elfsborg Aktiv 90 / 93 40% 1 14.11.2027 -
Souza Tottenham Aktiv 133 / 141 40% 2 29.10.2027 -
Matias Siltanen Malmo FF Aktiv 120 / 133 40% 3 23.10.2027 -
Agustín Obregón River Plate Aktiv 109 / 120 40% 1 19.10.2027 -
Esteban de Lima Tacuarembo Aktiv 98 / 96 40% 2 18.10.2027 -
Josh Nichols Oldham Athletic Aktiv 109 / 134 40% 1 18.10.2027 -
Oscar Steinke Brånby Hammarby Aktiv 112 / 98 40% 1 16.10.2027 -
Lucas Bergvall Tottenham Aktiv 143 / 150 40% 3 13.10.2027 -
Tiago Freitas Benfica Aktiv 108 / 124 40% 4 13.10.2027 -
Juan Manuel Villalba Tigre Aktiv 120 / 127 40% 1 10.10.2027 -
Mohamed Moussa Koïta Mathare United Aktiv 86 / 109 40% 1 10.10.2027 -
Victor Hernandez Santa Fe Aktiv 120 / 124 40% 1 26.09.2027 -
Alejandro Leiva Patronato Aktiv 91 / 106 40% 1 23.09.2027 -
Jonny Shore New York City Aktiv 93 / 113 40% 1 20.09.2027 -
José Cavadia Aguilas Doradas Aktiv 103 / 118 40% 1 13.09.2027 -
Santiago Colidio Liepaja Aktiv 94 / 100 40% 1 08.09.2027 -
Mbekezeli Mbokazi Chicago Fire Aktiv 132 / 139 40% 1 08.09.2027 -
Facundo Balatti Penarol Aktiv 98 / 111 40% 1 04.09.2027 -
Drew Baiera New York City Aktiv 96 / 109 40% 1 31.08.2027 -
Andrea Bertoncini Triestina Aktiv 99 / 108 40% 2 14.08.2027 -
Romuald Sawadogo Hapoel Raanana Aktiv 94 / 106 40% 1 14.08.2027 -
Eliás Montiel Borussia Dortmund Aktiv 132 / 134 40% 1 12.08.2027 -
Andrey Santa Cruz Aktiv 113 / 114 72% 1 12.07.2027 Befürworten